Time;durP1;ratioP1;P1;durP2;ratioP2;P2;SDS_P1;SDS_P2;PMS_P1;PMS_P2;Temp;Humidity;BMP_temperature;BMP_pressure;BME280_temperature;BME280_humidity;BME280_pressure;Samples;Min_cycle;Max_cycle;Signal;HPM_P1;HPM_P2
2022/01/31 00:00:50;;;;;;;22.80;9.27;;;;;;;;;;5020418;28;20029;-47
2022/01/31 00:03:16;;;;;;;14.88;7.32;;;;;;;;;;5019259;28;20398;-46
2022/01/31 00:05:42;;;;;;;23.52;9.95;;;;;;;;;;5020311;28;20124;-45
2022/01/31 00:08:08;;;;;;;17.00;6.55;;;;;;;;;;5020240;28;20029;-46
2022/01/31 00:10:34;;;;;;;30.77;12.80;;;;;;;;;;5020045;28;20025;-46
2022/01/31 00:13:04;;;;;;;24.45;9.00;;;;;;;;;;5021138;28;20017;-48
2022/01/31 00:15:36;;;;;;;14.90;6.07;;;;;;;;;;5045353;28;20100;-46
2022/01/31 00:18:02;;;;;;;17.88;7.22;;;;;;;;;;5072584;28;20039;-49
2022/01/31 00:20:28;;;;;;;22.08;9.38;;;;;;;;;;5072907;28;20028;-46
2022/01/31 00:22:54;;;;;;;18.17;6.82;;;;;;;;;;5072683;28;20484;-46
2022/01/31 00:25:20;;;;;;;22.85;7.72;;;;;;;;;;5072446;28;20225;-49
2022/01/31 00:27:47;;;;;;;17.10;7.28;;;;;;;;;;5072171;28;20024;-49
2022/01/31 00:30:16;;;;;;;15.18;6.43;;;;;;;;;;5072383;28;20495;-48
2022/01/31 00:32:42;;;;;;;18.25;7.60;;;;;;;;;;5072296;28;20397;-50
2022/01/31 00:35:09;;;;;;;31.65;12.98;;;;;;;;;;5072528;28;20403;-50
2022/01/31 00:37:40;;;;;;;42.42;19.70;;;;;;;;;;5072506;28;20024;-49
2022/01/31 00:40:07;;;;;;;33.93;16.23;;;;;;;;;;5072305;28;20013;-49
2022/01/31 00:42:33;;;;;;;13.50;5.72;;;;;;;;;;5072508;28;20050;-46
2022/01/31 00:45:12;;;;;;;12.40;4.13;;;;;;;;;;5074993;28;20400;-46
2022/01/31 00:47:40;;;;;;;22.60;7.90;;;;;;;;;;5075942;28;20021;-48
2022/01/31 00:50:12;;;;;;;14.88;4.65;;;;;;;;;;5075872;28;20033;-50
2022/01/31 00:52:39;;;;;;;15.93;6.03;;;;;;;;;;5075722;28;20026;-48
2022/01/31 00:55:06;;;;;;;15.27;5.78;;;;;;;;;;5075824;28;20090;-50
2022/01/31 00:57:32;;;;;;;17.77;6.35;;;;;;;;;;5075780;28;20059;-46
2022/01/31 00:59:58;;;;;;;22.25;7.15;;;;;;;;;;5075602;28;20549;-49
2022/01/31 01:02:25;;;;;;;24.73;9.30;;;;;;;;;;5075620;28;20028;-46
2022/01/31 01:04:51;;;;;;;16.08;5.95;;;;;;;;;;5075477;28;20040;-46
2022/01/31 01:07:19;;;;;;;15.82;4.95;;;;;;;;;;5075605;28;20025;-50
2022/01/31 01:09:46;;;;;;;19.80;6.75;;;;;;;;;;5075544;28;20025;-48
2022/01/31 01:12:13;;;;;;;15.95;5.82;;;;;;;;;;5075380;28;20031;-46
2022/01/31 01:14:40;;;;;;;20.83;6.18;;;;;;;;;;5075422;28;20044;-46
2022/01/31 01:17:06;;;;;;;14.18;5.25;;;;;;;;;;5075502;28;20024;-48
2022/01/31 01:19:32;;;;;;;15.85;3.97;;;;;;;;;;5075511;28;20511;-49
2022/01/31 01:21:59;;;;;;;14.48;4.93;;;;;;;;;;5075485;28;20138;-45
2022/01/31 01:24:25;;;;;;;18.40;6.72;;;;;;;;;;5075055;28;20037;-47
2022/01/31 01:26:51;;;;;;;14.90;4.88;;;;;;;;;;5074998;28;20469;-49
2022/01/31 01:29:19;;;;;;;19.38;5.95;;;;;;;;;;5074897;28;20420;-46
2022/01/31 01:31:46;;;;;;;25.20;10.27;;;;;;;;;;5075222;28;20021;-46
2022/01/31 01:34:12;;;;;;;25.45;9.07;;;;;;;;;;5074114;28;20036;-46
2022/01/31 01:36:38;;;;;;;21.00;6.28;;;;;;;;;;5075000;28;20023;-46
2022/01/31 01:39:07;;;;;;;18.58;6.00;;;;;;;;;;5074801;28;20016;-45
2022/01/31 01:41:33;;;;;;;13.07;5.40;;;;;;;;;;5075118;28;20020;-46
2022/01/31 01:43:59;;;;;;;19.45;5.55;;;;;;;;;;5075012;28;20131;-51
2022/01/31 01:46:27;;;;;;;18.67;5.35;;;;;;;;;;5074935;28;20034;-50
2022/01/31 01:48:54;;;;;;;20.05;5.32;;;;;;;;;;5074820;28;20141;-49
2022/01/31 01:51:20;;;;;;;18.38;4.82;;;;;;;;;;5073627;28;20040;-49
2022/01/31 01:53:48;;;;;;;14.38;3.20;;;;;;;;;;5074758;28;20060;-49
2022/01/31 01:56:14;;;;;;;27.83;8.45;;;;;;;;;;5074596;28;20062;-49
2022/01/31 01:58:42;;;;;;;22.00;7.22;;;;;;;;;;5074484;28;20037;-48
2022/01/31 02:01:09;;;;;;;29.65;9.75;;;;;;;;;;5074434;28;20064;-49
2022/01/31 02:03:36;;;;;;;23.77;8.13;;;;;;;;;;5074525;28;20123;-46
2022/01/31 02:06:03;;;;;;;24.15;6.75;;;;;;;;;;5073115;28;20484;-49
2022/01/31 02:08:38;;;;;;;22.35;7.28;;;;;;;;;;5074450;28;20025;-46
2022/01/31 02:11:04;;;;;;;17.95;6.53;;;;;;;;;;5074387;28;20388;-47
2022/01/31 02:13:31;;;;;;;23.83;5.00;;;;;;;;;;5074232;28;20095;-46
2022/01/31 02:15:57;;;;;;;26.92;6.85;;;;;;;;;;5074220;28;20025;-46
2022/01/31 02:18:27;;;;;;;21.08;5.95;;;;;;;;;;5074194;28;20024;-49
2022/01/31 02:20:53;;;;;;;16.60;5.45;;;;;;;;;;5073942;28;20107;-50
2022/01/31 02:23:21;;;;;;;19.05;4.88;;;;;;;;;;5074113;28;20036;-50
2022/01/31 02:25:53;;;;;;;20.75;5.30;;;;;;;;;;5074032;28;20028;-46
2022/01/31 02:28:19;;;;;;;17.30;5.78;;;;;;;;;;5073742;28;20241;-50
2022/01/31 02:30:46;;;;;;;17.67;4.10;;;;;;;;;;5073959;28;20111;-46
2022/01/31 02:33:12;;;;;;;22.88;7.03;;;;;;;;;;5073848;28;20017;-47
2022/01/31 02:35:38;;;;;;;26.90;8.60;;;;;;;;;;5073709;28;20033;-47
2022/01/31 02:38:04;;;;;;;22.77;6.82;;;;;;;;;;5074006;28;20040;-45
2022/01/31 02:40:30;;;;;;;25.05;7.63;;;;;;;;;;5073903;28;20029;-46
2022/01/31 02:42:56;;;;;;;22.63;6.47;;;;;;;;;;5073603;28;20035;-45
2022/01/31 02:45:22;;;;;;;17.23;4.40;;;;;;;;;;5073801;28;20036;-49
2022/01/31 02:47:55;;;;;;;21.95;7.93;;;;;;;;;;5073766;28;20024;-46
2022/01/31 02:50:21;;;;;;;21.80;7.47;;;;;;;;;;5073563;28;20111;-49
2022/01/31 02:52:56;;;;;;;18.67;5.28;;;;;;;;;;5073566;28;20017;-47
2022/01/31 02:55:23;;;;;;;18.60;5.57;;;;;;;;;;5073531;28;20034;-49
2022/01/31 02:57:49;;;;;;;25.85;6.40;;;;;;;;;;5073533;28;20222;-48
2022/01/31 03:00:15;;;;;;;26.83;8.70;;;;;;;;;;5073634;28;20033;-49
2022/01/31 03:02:41;;;;;;;29.50;6.75;;;;;;;;;;5073404;28;20021;-47
2022/01/31 03:05:10;;;;;;;23.83;6.90;;;;;;;;;;5073194;28;20040;-49
2022/01/31 03:07:36;;;;;;;23.30;7.60;;;;;;;;;;5072696;28;20025;-49
2022/01/31 03:10:03;;;;;;;26.85;8.68;;;;;;;;;;5073238;28;20035;-49
2022/01/31 03:12:29;;;;;;;27.40;8.25;;;;;;;;;;5073322;28;20032;-49
2022/01/31 03:14:55;;;;;;;24.98;5.80;;;;;;;;;;5073236;28;20430;-46
2022/01/31 03:17:21;;;;;;;21.17;5.72;;;;;;;;;;5073317;28;20032;-50
2022/01/31 03:19:53;;;;;;;22.23;6.25;;;;;;;;;;5073362;28;20028;-50
2022/01/31 03:22:23;;;;;;;31.55;8.73;;;;;;;;;;5073184;28;20029;-49
2022/01/31 03:24:50;;;;;;;36.75;10.27;;;;;;;;;;5073295;28;20117;-50
2022/01/31 03:27:16;;;;;;;33.47;9.07;;;;;;;;;;5072900;28;20059;-49
2022/01/31 03:29:42;;;;;;;27.33;8.50;;;;;;;;;;5072896;28;20053;-50
2022/01/31 03:32:09;;;;;;;26.70;6.20;;;;;;;;;;5073015;28;20016;-49
2022/01/31 03:34:35;;;;;;;22.85;6.60;;;;;;;;;;5072958;28;20021;-50
2022/01/31 03:37:01;;;;;;;33.38;5.93;;;;;;;;;;5072935;28;20115;-50
2022/01/31 03:39:29;;;;;;;20.38;4.85;;;;;;;;;;5073294;28;20500;-50
2022/01/31 03:41:55;;;;;;;24.42;4.82;;;;;;;;;;5072815;28;20142;-50
2022/01/31 03:44:21;;;;;;;20.75;4.03;;;;;;;;;;5072790;28;20089;-49
2022/01/31 03:46:47;;;;;;;18.67;4.57;;;;;;;;;;5073072;28;20102;-49
2022/01/31 03:49:13;;;;;;;14.88;3.78;;;;;;;;;;5073017;28;20099;-49
2022/01/31 03:51:39;;;;;;;21.67;5.88;;;;;;;;;;5071612;28;20028;-49
2022/01/31 03:54:05;;;;;;;22.90;6.10;;;;;;;;;;5072703;28;20433;-50
2022/01/31 03:56:31;;;;;;;22.33;6.85;;;;;;;;;;5072996;28;20033;-50
2022/01/31 03:58:57;;;;;;;25.50;6.13;;;;;;;;;;5072653;28;20025;-46
2022/01/31 04:01:26;;;;;;;22.15;5.32;;;;;;;;;;5072779;28;20035;-52
2022/01/31 04:03:52;;;;;;;25.13;7.85;;;;;;;;;;5072676;28;20041;-50
2022/01/31 04:06:18;;;;;;;20.52;5.80;;;;;;;;;;5072867;28;20115;-46
2022/01/31 04:08:44;;;;;;;16.52;4.35;;;;;;;;;;5072785;28;20021;-50
2022/01/31 04:11:11;;;;;;;16.80;4.45;;;;;;;;;;5073003;28;20449;-51
2022/01/31 04:13:37;;;;;;;17.70;5.78;;;;;;;;;;5072706;28;20032;-49
2022/01/31 04:16:04;;;;;;;27.45;6.53;;;;;;;;;;5072731;28;20030;-50
2022/01/31 04:18:30;;;;;;;23.23;7.45;;;;;;;;;;5073297;28;20025;-48
2022/01/31 04:20:59;;;;;;;26.50;7.15;;;;;;;;;;5076463;28;20074;-50
2022/01/31 04:23:27;;;;;;;25.50;7.97;;;;;;;;;;5076558;28;20066;-46
2022/01/31 04:26:01;;;;;;;21.35;6.82;;;;;;;;;;5076500;28;20052;-50
2022/01/31 04:28:33;;;;;;;19.08;6.45;;;;;;;;;;5074830;28;20082;-46
2022/01/31 04:31:49;;;;;;;21.45;6.53;;;;;;;;;;5076252;28;20028;-46
2022/01/31 04:33:46;;;;;;;15.00;5.60;;;;;;;;;;5072354;28;20032;-49
2022/01/31 04:36:15;;;;;;;19.73;4.68;;;;;;;;;;5076328;28;20017;-50
2022/01/31 04:38:41;;;;;;;14.43;5.35;;;;;;;;;;5076130;28;20533;-45
2022/01/31 04:41:08;;;;;;;21.33;4.60;;;;;;;;;;5076084;28;20461;-49
2022/01/31 04:43:34;;;;;;;18.63;5.20;;;;;;;;;;5075973;28;20031;-50
2022/01/31 04:46:02;;;;;;;17.45;5.45;;;;;;;;;;5076041;28;20083;-46
2022/01/31 04:48:28;;;;;;;20.95;6.95;;;;;;;;;;5076297;28;20053;-50
2022/01/31 04:50:55;;;;;;;16.75;6.30;;;;;;;;;;5075791;28;20028;-47
2022/01/31 04:53:21;;;;;;;18.40;7.07;;;;;;;;;;5075962;28;20036;-49
2022/01/31 04:55:47;;;;;;;19.50;6.95;;;;;;;;;;5076020;28;20476;-50
2022/01/31 04:58:14;;;;;;;20.50;5.50;;;;;;;;;;5075554;28;20396;-50
2022/01/31 05:00:40;;;;;;;17.52;6.50;;;;;;;;;;5075642;28;20024;-49
2022/01/31 05:03:16;;;;;;;19.73;6.55;;;;;;;;;;5074356;28;20031;-49
2022/01/31 05:05:43;;;;;;;20.77;6.18;;;;;;;;;;5075537;28;20119;-48
2022/01/31 05:08:09;;;;;;;32.08;11.35;;;;;;;;;;5075901;28;20028;-50
2022/01/31 05:10:42;;;;;;;20.40;7.00;;;;;;;;;;5075642;28;20048;-46
2022/01/31 05:13:08;;;;;;;21.58;6.97;;;;;;;;;;5075492;28;20480;-46
2022/01/31 05:15:34;;;;;;;19.35;8.30;;;;;;;;;;5075603;28;20091;-51
2022/01/31 05:18:02;;;;;;;21.15;9.10;;;;;;;;;;5075608;28;20128;-48
2022/01/31 05:20:29;;;;;;;21.60;8.00;;;;;;;;;;5075401;28;20039;-53
2022/01/31 05:22:55;;;;;;;25.55;7.65;;;;;;;;;;5075534;28;20082;-50
2022/01/31 05:25:21;;;;;;;22.42;8.05;;;;;;;;;;5075423;28;20119;-50
2022/01/31 05:27:47;;;;;;;17.65;7.22;;;;;;;;;;5074982;28;20036;-46
2022/01/31 05:30:13;;;;;;;21.08;9.15;;;;;;;;;;5074539;28;20025;-49
2022/01/31 05:32:43;;;;;;;27.67;10.35;;;;;;;;;;5075198;28;20385;-50
2022/01/31 05:35:10;;;;;;;32.03;10.30;;;;;;;;;;5075033;28;20031;-46
2022/01/31 05:37:38;;;;;;;30.10;11.27;;;;;;;;;;5075160;28;20434;-46
2022/01/31 05:40:05;;;;;;;20.92;7.80;;;;;;;;;;5075096;28;20536;-47
2022/01/31 05:42:31;;;;;;;22.73;8.80;;;;;;;;;;5075059;28;20025;-46
2022/01/31 05:44:57;;;;;;;21.27;7.85;;;;;;;;;;5074643;28;20487;-46
2022/01/31 05:47:23;;;;;;;18.10;7.35;;;;;;;;;;5074911;28;20024;-47
2022/01/31 05:49:49;;;;;;;21.05;7.75;;;;;;;;;;5074830;28;20031;-47
2022/01/31 05:52:16;;;;;;;19.05;6.30;;;;;;;;;;5074783;28;20502;-47
2022/01/31 05:54:42;;;;;;;23.15;7.38;;;;;;;;;;5074775;28;20404;-47
2022/01/31 05:57:09;;;;;;;22.15;7.47;;;;;;;;;;5074475;28;20052;-46
2022/01/31 05:59:35;;;;;;;25.70;7.55;;;;;;;;;;5074517;28;20029;-46
2022/01/31 06:02:04;;;;;;;18.92;6.78;;;;;;;;;;5074504;28;20100;-49
2022/01/31 06:04:30;;;;;;;20.67;7.35;;;;;;;;;;5074466;28;20016;-45
2022/01/31 06:06:57;;;;;;;21.60;7.88;;;;;;;;;;5074481;28;20108;-49
2022/01/31 06:09:26;;;;;;;21.75;8.57;;;;;;;;;;5074361;28;20385;-49
2022/01/31 06:11:52;;;;;;;18.38;6.97;;;;;;;;;;5074326;28;20039;-46
2022/01/31 06:14:19;;;;;;;21.70;8.73;;;;;;;;;;5074210;28;20052;-47
2022/01/31 06:16:45;;;;;;;18.77;7.93;;;;;;;;;;5074210;28;20024;-45
2022/01/31 06:19:13;;;;;;;18.63;6.80;;;;;;;;;;5074246;28;20024;-50
2022/01/31 06:21:39;;;;;;;26.70;7.43;;;;;;;;;;5074046;28;20498;-49
2022/01/31 06:24:09;;;;;;;26.42;8.88;;;;;;;;;;5073912;28;20037;-48
2022/01/31 06:26:36;;;;;;;20.45;7.05;;;;;;;;;;5074097;28;20548;-47
2022/01/31 06:29:02;;;;;;;22.58;7.18;;;;;;;;;;5073600;28;20044;-49
2022/01/31 06:31:29;;;;;;;22.13;7.10;;;;;;;;;;5073855;28;20028;-50
2022/01/31 06:33:56;;;;;;;35.00;15.43;;;;;;;;;;5073964;28;20127;-49
2022/01/31 06:36:23;;;;;;;38.97;13.50;;;;;;;;;;5073851;28;20441;-48
2022/01/31 06:38:49;;;;;;;34.30;15.02;;;;;;;;;;5073726;28;20041;-46
2022/01/31 06:41:19;;;;;;;35.13;11.93;;;;;;;;;;5072679;28;20059;-50
2022/01/31 06:43:45;;;;;;;27.83;12.25;;;;;;;;;;5073416;28;20031;-47
2022/01/31 06:46:13;;;;;;;34.20;12.60;;;;;;;;;;5073617;28;20028;-49
2022/01/31 06:48:40;;;;;;;36.15;12.88;;;;;;;;;;5073765;28;20153;-49
2022/01/31 06:51:06;;;;;;;31.83;10.63;;;;;;;;;;5073593;28;20070;-47
2022/01/31 06:53:32;;;;;;;28.77;10.90;;;;;;;;;;5073424;28;20034;-46
2022/01/31 06:55:59;;;;;;;35.13;11.15;;;;;;;;;;5073356;28;20055;-48
2022/01/31 06:58:25;;;;;;;29.05;13.20;;;;;;;;;;5073254;28;20043;-46
2022/01/31 07:00:52;;;;;;;34.95;12.93;;;;;;;;;;5073476;28;20035;-50
2022/01/31 07:03:18;;;;;;;33.47;14.40;;;;;;;;;;5073418;28;20484;-50
2022/01/31 07:05:44;;;;;;;46.17;17.60;;;;;;;;;;5073342;28;20090;-47
2022/01/31 07:08:14;;;;;;;48.72;19.02;;;;;;;;;;5073569;28;20150;-47
2022/01/31 07:10:40;;;;;;;86.82;27.08;;;;;;;;;;5073255;28;20082;-49
2022/01/31 07:13:24;;;;;;;74.10;27.48;;;;;;;;;;5071928;28;20078;-49
2022/01/31 07:15:50;;;;;;;52.97;23.35;;;;;;;;;;5071783;28;20035;-49
2022/01/31 07:18:16;;;;;;;54.58;21.77;;;;;;;;;;5073283;28;20021;-50
2022/01/31 07:20:50;;;;;;;50.85;21.45;;;;;;;;;;5073064;28;20025;-50
2022/01/31 07:23:23;;;;;;;43.83;19.10;;;;;;;;;;5073039;28;20016;-48
2022/01/31 07:25:49;;;;;;;53.83;19.60;;;;;;;;;;5073087;28;20374;-46
2022/01/31 07:28:16;;;;;;;53.20;21.00;;;;;;;;;;5072671;28;20113;-49
2022/01/31 07:30:46;;;;;;;64.97;22.83;;;;;;;;;;5073089;28;20064;-49
2022/01/31 07:33:12;;;;;;;58.15;25.90;;;;;;;;;;5072892;28;20052;-49
2022/01/31 07:35:39;;;;;;;81.93;32.72;;;;;;;;;;5073176;28;20477;-48
2022/01/31 07:38:05;;;;;;;79.55;32.60;;;;;;;;;;5072965;28;20043;-47
2022/01/31 07:40:31;;;;;;;80.68;33.45;;;;;;;;;;5072792;28;20469;-47
2022/01/31 07:42:57;;;;;;;103.32;41.30;;;;;;;;;;5072764;28;20052;-49
2022/01/31 07:45:23;;;;;;;94.75;35.00;;;;;;;;;;5072878;28;20036;-49
2022/01/31 07:47:49;;;;;;;60.35;24.17;;;;;;;;;;5072833;28;20051;-50
2022/01/31 07:50:16;;;;;;;52.92;23.40;;;;;;;;;;5072966;28;20488;-47
2022/01/31 07:52:42;;;;;;;43.15;19.83;;;;;;;;;;5073876;28;20137;-47
2022/01/31 07:55:10;;;;;;;59.72;25.35;;;;;;;;;;5076799;28;20024;-47
2022/01/31 07:57:38;;;;;;;114.93;41.67;;;;;;;;;;5077045;28;20052;-47
2022/01/31 08:00:05;;;;;;;108.00;40.67;;;;;;;;;;5076781;28;20024;-49
2022/01/31 08:02:33;;;;;;;74.28;29.38;;;;;;;;;;5076988;28;20029;-49
2022/01/31 08:04:59;;;;;;;74.47;30.08;;;;;;;;;;5076975;28;20035;-49
2022/01/31 08:07:26;;;;;;;94.63;37.97;;;;;;;;;;5076746;28;20028;-48
2022/01/31 08:09:52;;;;;;;57.50;23.60;;;;;;;;;;5076787;28;20024;-49
2022/01/31 08:12:18;;;;;;;79.38;37.88;;;;;;;;;;5076606;28;20380;-48
2022/01/31 08:14:46;;;;;;;109.68;48.13;;;;;;;;;;5076397;28;20084;-48
2022/01/31 08:17:12;;;;;;;59.72;25.67;;;;;;;;;;5076565;28;20480;-47
2022/01/31 08:19:38;;;;;;;63.75;28.40;;;;;;;;;;5076509;28;20028;-49
2022/01/31 08:22:04;;;;;;;58.63;26.60;;;;;;;;;;5076517;28;20029;-46
2022/01/31 08:24:30;;;;;;;72.22;28.35;;;;;;;;;;5076281;28;20531;-47
2022/01/31 08:26:56;;;;;;;73.40;31.83;;;;;;;;;;5076187;28;20028;-50
2022/01/31 08:29:31;;;;;;;75.60;30.88;;;;;;;;;;5075817;28;20443;-47
2022/01/31 08:31:58;;;;;;;96.03;37.28;;;;;;;;;;5076292;28;20033;-49
2022/01/31 08:35:47;;;;;;;120.03;49.55;;;;;;;;;;5075151;28;20141;-49
2022/01/31 08:37:13;;;;;;;114.07;43.25;;;;;;;;;;5075883;28;20024;-48
2022/01/31 08:39:39;;;;;;;104.80;45.42;;;;;;;;;;5075961;28;20369;-49
2022/01/31 08:42:05;;;;;;;130.73;55.30;;;;;;;;;;5076217;28;20145;-49
2022/01/31 08:44:32;;;;;;;166.77;66.10;;;;;;;;;;5075773;28;20484;-49
2022/01/31 08:46:58;;;;;;;154.43;68.07;;;;;;;;;;5076017;28;20029;-49
2022/01/31 08:49:26;;;;;;;144.95;64.00;;;;;;;;;;5076085;28;20060;-49
2022/01/31 08:51:53;;;;;;;99.03;38.75;;;;;;;;;;5075776;28;20108;-49
2022/01/31 08:54:20;;;;;;;94.82;39.03;;;;;;;;;;5075955;28;20036;-49
2022/01/31 08:56:47;;;;;;;88.53;35.47;;;;;;;;;;5076030;28;20047;-50
2022/01/31 08:59:18;;;;;;;88.15;32.90;;;;;;;;;;5075484;28;20020;-47
2022/01/31 09:01:52;;;;;;;44.00;18.47;;;;;;;;;;5075830;28;20115;-46
2022/01/31 09:04:32;;;;;;;32.47;13.20;;;;;;;;;;5074521;28;20107;-48
2022/01/31 09:06:58;;;;;;;37.30;14.63;;;;;;;;;;5075530;28;20393;-53
2022/01/31 09:09:25;;;;;;;44.38;19.42;;;;;;;;;;5075512;28;20021;-47
2022/01/31 09:11:51;;;;;;;57.88;25.98;;;;;;;;;;5075365;28;20425;-45
2022/01/31 09:14:19;;;;;;;74.78;36.13;;;;;;;;;;5075319;28;20081;-47
2022/01/31 09:16:46;;;;;;;86.57;39.95;;;;;;;;;;5075202;28;20043;-46
2022/01/31 09:19:12;;;;;;;81.13;36.42;;;;;;;;;;5070429;28;20104;-49
2022/01/31 09:21:38;;;;;;;114.07;52.88;;;;;;;;;;5055172;28;20029;-47
2022/01/31 09:24:04;;;;;;;87.07;37.28;;;;;;;;;;5054544;28;20029;-47
2022/01/31 09:26:30;;;;;;;97.18;44.58;;;;;;;;;;5054666;28;20029;-47
2022/01/31 09:28:56;;;;;;;77.57;36.13;;;;;;;;;;5053669;28;20094;-47
2022/01/31 09:31:23;;;;;;;80.65;37.15;;;;;;;;;;5054521;28;20445;-46
2022/01/31 09:33:50;;;;;;;82.82;38.53;;;;;;;;;;5054816;28;20021;-46
2022/01/31 09:36:16;;;;;;;69.55;30.27;;;;;;;;;;5054958;28;20021;-45
2022/01/31 09:38:43;;;;;;;78.45;34.97;;;;;;;;;;5055129;28;20387;-46
2022/01/31 09:41:13;;;;;;;77.03;34.67;;;;;;;;;;5054841;28;20025;-50
2022/01/31 09:48:56;;;;;;;191.10;54.78;;;;;;;;;;5054228;28;20026;-48
2022/01/31 09:51:23;;;;;;;234.82;60.90;;;;;;;;;;5054466;28;20021;-46
2022/01/31 09:53:49;;;;;;;329.90;78.35;;;;;;;;;;5054272;28;20028;-46
2022/01/31 09:56:18;;;;;;;371.67;91.05;;;;;;;;;;5054333;28;20075;-47
2022/01/31 09:58:44;;;;;;;240.75;60.38;;;;;;;;;;5054596;28;20029;-47
2022/01/31 10:01:18;;;;;;;261.67;64.22;;;;;;;;;;5051423;28;20474;-47
2022/01/31 10:03:54;;;;;;;222.00;62.88;;;;;;;;;;5054194;28;20033;-47
2022/01/31 10:06:20;;;;;;;176.35;45.45;;;;;;;;;;5054088;28;20056;-47
2022/01/31 10:08:46;;;;;;;172.38;46.00;;;;;;;;;;5053818;28;20063;-46
2022/01/31 10:11:28;;;;;;;141.27;37.40;;;;;;;;;;5053969;28;20086;-47
2022/01/31 10:16:45;;;;;;;71.05;20.30;;;;;;;;;;5054466;28;20051;-46
2022/01/31 10:19:12;;;;;;;48.95;16.17;;;;;;;;;;5054344;28;20028;-46
2022/01/31 10:21:55;;;;;;;72.45;23.50;;;;;;;;;;5053654;28;20473;-47
2022/01/31 10:24:22;;;;;;;37.28;13.80;;;;;;;;;;5050883;28;20138;-46
2022/01/31 10:26:49;;;;;;;40.88;14.82;;;;;;;;;;5053661;28;20033;-46
2022/01/31 10:29:17;;;;;;;60.60;23.45;;;;;;;;;;5053363;28;20067;-48
2022/01/31 10:32:02;;;;;;;52.60;25.20;;;;;;;;;;5049351;28;20084;-48
2022/01/31 10:34:29;;;;;;;39.10;14.88;;;;;;;;;;5052187;28;20104;-47
2022/01/31 10:36:55;;;;;;;29.95;10.85;;;;;;;;;;5053389;28;20036;-47
2022/01/31 10:53:15;;;;;;;28.17;7.68;;;;;;;;;;5051742;28;20036;-46
2022/01/31 10:55:41;;;;;;;27.88;7.43;;;;;;;;;;5053107;28;20028;-47
2022/01/31 10:58:09;;;;;;;24.48;8.27;;;;;;;;;;5053157;28;20028;-46
2022/01/31 11:00:39;;;;;;;19.30;6.18;;;;;;;;;;5052905;28;20036;-47
2022/01/31 11:03:23;;;;;;;24.98;9.15;;;;;;;;;;5052934;28;20060;-46
2022/01/31 11:05:50;;;;;;;60.00;27.58;;;;;;;;;;5050404;28;20116;-47
2022/01/31 11:08:17;;;;;;;23.50;8.38;;;;;;;;;;5052757;28;20017;-46
2022/01/31 11:10:43;;;;;;;31.80;13.25;;;;;;;;;;5052835;28;20079;-46
2022/01/31 11:13:09;;;;;;;29.98;9.27;;;;;;;;;;5052889;28;20024;-46
2022/01/31 11:15:37;;;;;;;18.92;5.07;;;;;;;;;;5051949;28;20120;-48
2022/01/31 11:18:06;;;;;;;17.77;4.40;;;;;;;;;;5052669;28;20021;-47
2022/01/31 11:20:32;;;;;;;28.15;9.75;;;;;;;;;;5053197;28;20155;-47
2022/01/31 11:22:59;;;;;;;19.05;5.95;;;;;;;;;;5052544;28;20013;-49
2022/01/31 11:25:29;;;;;;;17.48;7.13;;;;;;;;;;5052525;28;20500;-46
2022/01/31 11:27:59;;;;;;;13.98;3.90;;;;;;;;;;5052055;28;20064;-49
2022/01/31 11:30:26;;;;;;;12.63;3.80;;;;;;;;;;5052437;28;20044;-48
2022/01/31 11:32:53;;;;;;;18.83;6.15;;;;;;;;;;5052601;28;20017;-47
2022/01/31 11:35:19;;;;;;;16.63;4.38;;;;;;;;;;5052477;28;20017;-48
2022/01/31 11:37:45;;;;;;;20.92;7.22;;;;;;;;;;5049694;28;20017;-47
2022/01/31 11:40:13;;;;;;;17.60;5.72;;;;;;;;;;5052670;28;20017;-46
2022/01/31 11:42:43;;;;;;;18.08;4.70;;;;;;;;;;5052436;28;20362;-47
2022/01/31 11:45:17;;;;;;;18.63;4.75;;;;;;;;;;5049997;28;20489;-46
2022/01/31 11:47:45;;;;;;;56.03;26.88;;;;;;;;;;5052457;28;20036;-46
2022/01/31 11:50:12;;;;;;;28.20;10.23;;;;;;;;;;5052226;28;20028;-46
2022/01/31 11:52:44;;;;;;;48.90;21.95;;;;;;;;;;5052352;28;20021;-46
2022/01/31 11:55:12;;;;;;;77.03;40.60;;;;;;;;;;5050225;28;20022;-46
2022/01/31 11:57:39;;;;;;;31.85;12.60;;;;;;;;;;5052396;28;20346;-46
2022/01/31 12:00:08;;;;;;;30.55;12.55;;;;;;;;;;5052050;28;20494;-45
2022/01/31 12:02:40;;;;;;;51.22;22.77;;;;;;;;;;5052279;28;20053;-47
2022/01/31 12:05:07;;;;;;;24.50;9.43;;;;;;;;;;5049451;28;20044;-46
2022/01/31 12:07:42;;;;;;;34.58;11.70;;;;;;;;;;5052160;28;20116;-45
2022/01/31 12:10:09;;;;;;;24.05;8.60;;;;;;;;;;5049972;28;20025;-45
2022/01/31 12:18:27;;;;;;;30.20;9.90;;;;;;;;;;5051435;28;20040;-47
2022/01/31 12:23:43;;;;;;;21.67;7.65;;;;;;;;;;5051713;28;20056;-44
2022/01/31 12:26:27;;;;;;;42.50;17.52;;;;;;;;;;5051965;28;20033;-45
2022/01/31 12:28:57;;;;;;;34.38;10.10;;;;;;;;;;5050083;28;20041;-46
2022/01/31 12:31:29;;;;;;;75.50;31.13;;;;;;;;;;5051989;28;20040;-46
2022/01/31 12:33:56;;;;;;;32.15;10.98;;;;;;;;;;5028953;28;20423;-45
2022/01/31 12:36:34;;;;;;;24.98;8.48;;;;;;;;;;5016613;28;20075;-45
2022/01/31 12:39:01;;;;;;;30.83;8.70;;;;;;;;;;5016704;28;20030;-44
2022/01/31 12:41:29;;;;;;;27.25;9.38;;;;;;;;;;5020000;28;20022;-46
2022/01/31 12:44:15;;;;;;;24.52;8.05;;;;;;;;;;5020496;28;20489;-46
2022/01/31 12:46:50;;;;;;;22.30;7.13;;;;;;;;;;5020711;28;20537;-46
2022/01/31 12:49:17;;;;;;;19.77;7.15;;;;;;;;;;5019997;28;20032;-46
2022/01/31 12:52:03;;;;;;;25.38;9.07;;;;;;;;;;5020253;28;20074;-46
2022/01/31 12:54:30;;;;;;;31.05;9.18;;;;;;;;;;5020209;28;20036;-46
2022/01/31 12:57:02;;;;;;;24.08;7.45;;;;;;;;;;5020187;28;20529;-46
2022/01/31 12:59:29;;;;;;;26.85;7.88;;;;;;;;;;5020462;28;20063;-45
2022/01/31 13:01:56;;;;;;;20.17;6.20;;;;;;;;;;5019638;28;20026;-45
2022/01/31 13:04:24;;;;;;;29.67;7.80;;;;;;;;;;5020073;28;20017;-45
2022/01/31 13:06:55;;;;;;;24.48;7.35;;;;;;;;;;5020128;28;20026;-45
2022/01/31 13:09:26;;;;;;;14.95;5.57;;;;;;;;;;5020360;28;20331;-44
2022/01/31 13:12:06;;;;;;;21.00;7.10;;;;;;;;;;5019750;28;20407;-45
2022/01/31 13:14:41;;;;;;;22.40;6.85;;;;;;;;;;5019657;28;20022;-46
2022/01/31 13:17:18;;;;;;;19.92;5.55;;;;;;;;;;5019498;28;20036;-46
2022/01/31 13:19:48;;;;;;;20.90;6.32;;;;;;;;;;5019537;28;20111;-45
2022/01/31 13:22:35;;;;;;;23.02;6.40;;;;;;;;;;5019101;28;20044;-46
2022/01/31 13:25:05;;;;;;;21.15;5.97;;;;;;;;;;5019619;28;20402;-46
2022/01/31 13:27:35;;;;;;;25.52;6.10;;;;;;;;;;5019267;28;20087;-46
2022/01/31 13:30:03;;;;;;;21.08;6.95;;;;;;;;;;5019062;28;20053;-45
2022/01/31 13:32:30;;;;;;;22.23;7.35;;;;;;;;;;5019627;28;20044;-47
2022/01/31 13:34:58;;;;;;;21.95;7.32;;;;;;;;;;5019193;28;20033;-46
2022/01/31 13:37:28;;;;;;;20.48;6.30;;;;;;;;;;5019294;28;20036;-46
2022/01/31 13:39:58;;;;;;;14.70;4.90;;;;;;;;;;5019230;28;20033;-45
2022/01/31 13:42:32;;;;;;;20.17;5.75;;;;;;;;;;5018855;28;20037;-46
2022/01/31 13:44:59;;;;;;;22.65;6.53;;;;;;;;;;5019166;28;20529;-46
2022/01/31 13:47:35;;;;;;;20.88;6.32;;;;;;;;;;5019109;28;20056;-47
2022/01/31 13:50:03;;;;;;;22.63;6.47;;;;;;;;;;5018668;28;20132;-46
2022/01/31 13:52:33;;;;;;;23.67;7.90;;;;;;;;;;5018779;28;20496;-45
2022/01/31 13:55:00;;;;;;;24.52;7.65;;;;;;;;;;5019009;28;20040;-46
2022/01/31 13:57:26;;;;;;;25.15;7.38;;;;;;;;;;5018604;28;20029;-46
2022/01/31 13:59:54;;;;;;;24.58;7.75;;;;;;;;;;5019008;28;20025;-46
2022/01/31 14:02:21;;;;;;;18.45;7.70;;;;;;;;;;5019148;28;20421;-46
2022/01/31 14:04:47;;;;;;;25.00;7.93;;;;;;;;;;5018897;28;20037;-46
2022/01/31 14:07:23;;;;;;;25.17;6.53;;;;;;;;;;5018577;28;20025;-46
2022/01/31 14:09:49;;;;;;;30.15;8.13;;;;;;;;;;5018251;28;20090;-47
2022/01/31 14:12:16;;;;;;;22.63;7.43;;;;;;;;;;5018994;28;20378;-46
2022/01/31 14:14:44;;;;;;;28.65;7.40;;;;;;;;;;5018783;28;20430;-46
2022/01/31 14:17:10;;;;;;;26.08;7.97;;;;;;;;;;5016776;28;20037;-46
2022/01/31 14:19:39;;;;;;;25.63;7.63;;;;;;;;;;5018643;28;20033;-46
2022/01/31 14:22:08;;;;;;;45.00;14.85;;;;;;;;;;5018780;28;20047;-46
2022/01/31 14:24:34;;;;;;;24.27;9.20;;;;;;;;;;5018394;28;20061;-46
2022/01/31 14:27:02;;;;;;;25.40;8.63;;;;;;;;;;5018722;28;20084;-45
2022/01/31 14:29:29;;;;;;;32.63;9.50;;;;;;;;;;5018046;28;20153;-46
2022/01/31 14:31:56;;;;;;;31.38;10.32;;;;;;;;;;5018748;28;20636;-46
2022/01/31 14:34:23;;;;;;;28.05;9.70;;;;;;;;;;5018424;28;20025;-46
2022/01/31 14:36:52;;;;;;;38.67;10.65;;;;;;;;;;5018320;28;20025;-46
2022/01/31 14:42:27;;;;;;;26.38;9.70;;;;;;;;;;5018046;28;20041;-46
2022/01/31 14:47:53;;;;;;;50.20;15.93;;;;;;;;;;5017581;28;20167;-46
2022/01/31 14:50:20;;;;;;;58.08;22.27;;;;;;;;;;5018068;28;20029;-46
2022/01/31 14:52:51;;;;;;;64.95;25.42;;;;;;;;;;5017435;28;20396;-46
2022/01/31 14:55:19;;;;;;;40.63;18.08;;;;;;;;;;5017637;28;20080;-46
2022/01/31 14:57:45;;;;;;;46.85;17.73;;;;;;;;;;5017759;28;20379;-46
2022/01/31 15:00:21;;;;;;;60.72;22.17;;;;;;;;;;5017884;28;20025;-45
2022/01/31 15:02:48;;;;;;;56.33;23.98;;;;;;;;;;5016837;28;20021;-46
2022/01/31 15:05:16;;;;;;;59.05;24.33;;;;;;;;;;5018184;28;20041;-46